sensor_id;sensor_type;location;lat;lon;timestamp;temperature;humidity
22923;DHT22;11627;51.322;22.816;2022-10-22T00:01:03;8.70;1.00
22923;DHT22;11627;51.322;22.816;2022-10-22T00:03:29;8.70;1.00
22923;DHT22;11627;51.322;22.816;2022-10-22T00:05:55;8.70;1.00
22923;DHT22;11627;51.322;22.816;2022-10-22T00:08:20;8.70;1.00
22923;DHT22;11627;51.322;22.816;2022-10-22T00:10:46;8.70;1.00
22923;DHT22;11627;51.322;22.816;2022-10-22T00:13:12;8.70;1.00
22923;DHT22;11627;51.322;22.816;2022-10-22T00:15:37;8.70;1.00
22923;DHT22;11627;51.322;22.816;2022-10-22T00:18:03;8.70;1.00
22923;DHT22;11627;51.322;22.816;2022-10-22T00:20:29;8.70;1.00
22923;DHT22;11627;51.322;22.816;2022-10-22T00:22:54;8.60;1.00
22923;DHT22;11627;51.322;22.816;2022-10-22T00:25:20;8.60;1.00
22923;DHT22;11627;51.322;22.816;2022-10-22T00:27:45;8.60;1.00
22923;DHT22;11627;51.322;22.816;2022-10-22T00:30:11;8.50;1.00
22923;DHT22;11627;51.322;22.816;2022-10-22T00:32:36;8.50;1.00
22923;DHT22;11627;51.322;22.816;2022-10-22T00:35:02;8.50;1.00
22923;DHT22;11627;51.322;22.816;2022-10-22T00:37:28;8.40;1.00
22923;DHT22;11627;51.322;22.816;2022-10-22T00:39:54;8.50;1.00
22923;DHT22;11627;51.322;22.816;2022-10-22T00:42:22;8.50;1.00
22923;DHT22;11627;51.322;22.816;2022-10-22T00:47:40;8.50;1.00
22923;DHT22;11627;51.322;22.816;2022-10-22T00:50:15;8.60;1.00
22923;DHT22;11627;51.322;22.816;2022-10-22T00:52:41;8.60;1.00
22923;DHT22;11627;51.322;22.816;2022-10-22T00:55:07;8.60;1.00
22923;DHT22;11627;51.322;22.816;2022-10-22T00:57:34;8.60;1.00
22923;DHT22;11627;51.322;22.816;2022-10-22T01:00:00;8.50;1.00
22923;DHT22;11627;51.322;22.816;2022-10-22T01:02:26;8.60;1.00
22923;DHT22;11627;51.322;22.816;2022-10-22T01:04:52;8.60;1.00
22923;DHT22;11627;51.322;22.816;2022-10-22T01:07:19;8.70;1.00
22923;DHT22;11627;51.322;22.816;2022-10-22T01:12:51;8.60;1.00
22923;DHT22;11627;51.322;22.816;2022-10-22T01:15:38;8.60;1.00
22923;DHT22;11627;51.322;22.816;2022-10-22T01:18:15;8.60;1.00
22923;DHT22;11627;51.322;22.816;2022-10-22T01:21:02;8.60;1.00
22923;DHT22;11627;51.322;22.816;2022-10-22T01:23:45;8.50;1.00
22923;DHT22;11627;51.322;22.816;2022-10-22T01:28:57;8.60;1.00
22923;DHT22;11627;51.322;22.816;2022-10-22T01:31:29;8.60;1.00
22923;DHT22;11627;51.322;22.816;2022-10-22T01:33:58;8.60;1.00
22923;DHT22;11627;51.322;22.816;2022-10-22T01:36:24;8.60;1.00
22923;DHT22;11627;51.322;22.816;2022-10-22T01:38:51;8.20;1.00
22923;DHT22;11627;51.322;22.816;2022-10-22T01:41:18;8.70;1.00
22923;DHT22;11627;51.322;22.816;2022-10-22T01:43:43;8.80;1.00
22923;DHT22;11627;51.322;22.816;2022-10-22T01:46:10;8.60;1.00
22923;DHT22;11627;51.322;22.816;2022-10-22T01:48:44;8.70;1.00
22923;DHT22;11627;51.322;22.816;2022-10-22T01:56:29;8.60;1.00
22923;DHT22;11627;51.322;22.816;2022-10-22T02:02:22;8.70;1.00
22923;DHT22;11627;51.322;22.816;2022-10-22T02:04:52;8.70;1.00
22923;DHT22;11627;51.322;22.816;2022-10-22T02:07:23;8.70;1.00
22923;DHT22;11627;51.322;22.816;2022-10-22T02:09:51;8.70;1.00
22923;DHT22;11627;51.322;22.816;2022-10-22T02:12:19;8.60;1.00
22923;DHT22;11627;51.322;22.816;2022-10-22T02:14:46;8.60;1.00
22923;DHT22;11627;51.322;22.816;2022-10-22T02:17:15;8.60;1.00
22923;DHT22;11627;51.322;22.816;2022-10-22T02:19:50;8.60;1.00
22923;DHT22;11627;51.322;22.816;2022-10-22T02:22:17;8.60;1.00
22923;DHT22;11627;51.322;22.816;2022-10-22T02:24:43;8.60;1.00
22923;DHT22;11627;51.322;22.816;2022-10-22T02:27:39;8.60;1.00
22923;DHT22;11627;51.322;22.816;2022-10-22T02:30:04;8.60;1.00
22923;DHT22;11627;51.322;22.816;2022-10-22T02:32:43;8.60;1.00
22923;DHT22;11627;51.322;22.816;2022-10-22T02:35:14;8.60;1.00
22923;DHT22;11627;51.322;22.816;2022-10-22T02:37:40;8.60;1.00
22923;DHT22;11627;51.322;22.816;2022-10-22T02:40:06;8.60;1.00
22923;DHT22;11627;51.322;22.816;2022-10-22T02:42:33;8.60;1.00
22923;DHT22;11627;51.322;22.816;2022-10-22T02:44:59;8.60;1.00
22923;DHT22;11627;51.322;22.816;2022-10-22T02:47:24;8.70;1.00
22923;DHT22;11627;51.322;22.816;2022-10-22T02:49:50;8.70;1.00
22923;DHT22;11627;51.322;22.816;2022-10-22T02:52:15;8.60;1.00
22923;DHT22;11627;51.322;22.816;2022-10-22T02:54:41;8.70;1.00
22923;DHT22;11627;51.322;22.816;2022-10-22T02:57:06;8.70;1.00
22923;DHT22;11627;51.322;22.816;2022-10-22T02:59:32;8.80;1.00
22923;DHT22;11627;51.322;22.816;2022-10-22T03:01:58;8.80;1.00
22923;DHT22;11627;51.322;22.816;2022-10-22T03:04:23;8.80;1.00
22923;DHT22;11627;51.322;22.816;2022-10-22T03:06:49;8.80;1.00
22923;DHT22;11627;51.322;22.816;2022-10-22T03:09:15;8.80;1.00
22923;DHT22;11627;51.322;22.816;2022-10-22T03:11:40;8.80;1.00
22923;DHT22;11627;51.322;22.816;2022-10-22T03:14:06;8.80;1.00
22923;DHT22;11627;51.322;22.816;2022-10-22T03:16:31;8.80;1.00
22923;DHT22;11627;51.322;22.816;2022-10-22T03:18:57;8.80;1.00
22923;DHT22;11627;51.322;22.816;2022-10-22T03:21:30;8.80;1.00
22923;DHT22;11627;51.322;22.816;2022-10-22T03:24:01;8.90;1.00
22923;DHT22;11627;51.322;22.816;2022-10-22T03:26:29;8.90;1.00
22923;DHT22;11627;51.322;22.816;2022-10-22T03:28:55;8.90;1.00
22923;DHT22;11627;51.322;22.816;2022-10-22T03:31:21;8.90;1.00
22923;DHT22;11627;51.322;22.816;2022-10-22T03:33:47;8.90;1.00
22923;DHT22;11627;51.322;22.816;2022-10-22T03:36:12;8.80;1.00
22923;DHT22;11627;51.322;22.816;2022-10-22T03:38:39;8.80;1.00
22923;DHT22;11627;51.322;22.816;2022-10-22T03:41:05;8.80;1.00
22923;DHT22;11627;51.322;22.816;2022-10-22T03:43:33;8.80;1.00
22923;DHT22;11627;51.322;22.816;2022-10-22T03:45:59;8.80;1.00
22923;DHT22;11627;51.322;22.816;2022-10-22T03:48:25;8.90;1.00
22923;DHT22;11627;51.322;22.816;2022-10-22T03:50:50;8.90;1.00
22923;DHT22;11627;51.322;22.816;2022-10-22T03:53:16;8.90;1.00
22923;DHT22;11627;51.322;22.816;2022-10-22T03:55:41;8.90;1.00
22923;DHT22;11627;51.322;22.816;2022-10-22T03:58:07;9.00;1.00
22923;DHT22;11627;51.322;22.816;2022-10-22T04:00:34;8.90;1.00
22923;DHT22;11627;51.322;22.816;2022-10-22T04:02:59;9.00;1.00
22923;DHT22;11627;51.322;22.816;2022-10-22T04:05:25;8.90;1.00
22923;DHT22;11627;51.322;22.816;2022-10-22T04:07:51;8.90;1.00
22923;DHT22;11627;51.322;22.816;2022-10-22T04:10:16;9.00;1.00
22923;DHT22;11627;51.322;22.816;2022-10-22T04:12:42;8.90;1.00
22923;DHT22;11627;51.322;22.816;2022-10-22T04:15:08;8.90;1.00
22923;DHT22;11627;51.322;22.816;2022-10-22T04:17:34;8.90;1.00
22923;DHT22;11627;51.322;22.816;2022-10-22T04:20:02;8.90;1.00
22923;DHT22;11627;51.322;22.816;2022-10-22T04:22:28;9.00;1.00
22923;DHT22;11627;51.322;22.816;2022-10-22T04:24:54;9.00;1.00
22923;DHT22;11627;51.322;22.816;2022-10-22T04:27:19;9.00;1.00
22923;DHT22;11627;51.322;22.816;2022-10-22T04:29:45;9.00;1.00
22923;DHT22;11627;51.322;22.816;2022-10-22T04:32:10;9.00;1.00
22923;DHT22;11627;51.322;22.816;2022-10-22T04:34:36;9.00;1.00
22923;DHT22;11627;51.322;22.816;2022-10-22T04:37:01;8.90;1.00
22923;DHT22;11627;51.322;22.816;2022-10-22T04:39:27;9.00;1.00
22923;DHT22;11627;51.322;22.816;2022-10-22T04:41:53;9.00;1.00
22923;DHT22;11627;51.322;22.816;2022-10-22T04:44:18;9.10;1.00
22923;DHT22;11627;51.322;22.816;2022-10-22T04:46:44;9.20;1.00
22923;DHT22;11627;51.322;22.816;2022-10-22T04:49:09;9.10;1.00
22923;DHT22;11627;51.322;22.816;2022-10-22T04:51:35;9.00;1.00
22923;DHT22;11627;51.322;22.816;2022-10-22T04:54:00;9.00;1.00
22923;DHT22;11627;51.322;22.816;2022-10-22T04:56:28;9.00;1.00
22923;DHT22;11627;51.322;22.816;2022-10-22T04:58:57;9.00;1.00
22923;DHT22;11627;51.322;22.816;2022-10-22T05:01:28;9.00;1.00
22923;DHT22;11627;51.322;22.816;2022-10-22T05:03:55;9.00;1.00
22923;DHT22;11627;51.322;22.816;2022-10-22T05:06:22;8.90;1.00
22923;DHT22;11627;51.322;22.816;2022-10-22T05:08:52;8.90;1.00
22923;DHT22;11627;51.322;22.816;2022-10-22T05:11:20;8.80;1.00
22923;DHT22;11627;51.322;22.816;2022-10-22T05:13:46;8.80;1.00
22923;DHT22;11627;51.322;22.816;2022-10-22T05:16:12;8.80;1.00
22923;DHT22;11627;51.322;22.816;2022-10-22T05:18:40;8.80;1.00
22923;DHT22;11627;51.322;22.816;2022-10-22T05:21:14;8.90;1.00
22923;DHT22;11627;51.322;22.816;2022-10-22T05:23:41;9.00;1.00
22923;DHT22;11627;51.322;22.816;2022-10-22T05:26:08;9.10;1.00
22923;DHT22;11627;51.322;22.816;2022-10-22T05:28:34;9.10;1.00
22923;DHT22;11627;51.322;22.816;2022-10-22T05:31:00;9.20;1.00
22923;DHT22;11627;51.322;22.816;2022-10-22T05:33:27;9.30;1.00
22923;DHT22;11627;51.322;22.816;2022-10-22T05:35:53;9.30;1.00
22923;DHT22;11627;51.322;22.816;2022-10-22T05:38:19;9.30;1.00
22923;DHT22;11627;51.322;22.816;2022-10-22T05:40:44;9.30;1.00
22923;DHT22;11627;51.322;22.816;2022-10-22T05:43:10;9.30;1.00
22923;DHT22;11627;51.322;22.816;2022-10-22T05:45:40;10.20;1.00
22923;DHT22;11627;51.322;22.816;2022-10-22T05:48:07;9.20;1.00
22923;DHT22;11627;51.322;22.816;2022-10-22T05:50:37;9.20;1.00
22923;DHT22;11627;51.322;22.816;2022-10-22T05:53:04;9.20;1.00
22923;DHT22;11627;51.322;22.816;2022-10-22T05:55:30;9.20;1.00
22923;DHT22;11627;51.322;22.816;2022-10-22T05:57:55;9.10;1.00
22923;DHT22;11627;51.322;22.816;2022-10-22T06:00:21;9.10;1.00
22923;DHT22;11627;51.322;22.816;2022-10-22T06:02:50;9.20;1.00
22923;DHT22;11627;51.322;22.816;2022-10-22T06:05:15;9.20;1.00
22923;DHT22;11627;51.322;22.816;2022-10-22T06:07:41;9.20;1.00
22923;DHT22;11627;51.322;22.816;2022-10-22T06:10:13;9.20;1.00
22923;DHT22;11627;51.322;22.816;2022-10-22T06:12:39;9.70;1.00
22923;DHT22;11627;51.322;22.816;2022-10-22T06:15:06;9.30;1.00
22923;DHT22;11627;51.322;22.816;2022-10-22T06:17:31;9.40;1.00
22923;DHT22;11627;51.322;22.816;2022-10-22T06:19:57;9.00;1.00
22923;DHT22;11627;51.322;22.816;2022-10-22T06:22:22;9.40;1.00
22923;DHT22;11627;51.322;22.816;2022-10-22T06:24:48;9.50;1.00
22923;DHT22;11627;51.322;22.816;2022-10-22T06:27:13;9.50;1.00
22923;DHT22;11627;51.322;22.816;2022-10-22T06:29:39;9.50;1.00
22923;DHT22;11627;51.322;22.816;2022-10-22T06:32:04;9.50;1.00
22923;DHT22;11627;51.322;22.816;2022-10-22T06:34:30;9.70;1.00
22923;DHT22;11627;51.322;22.816;2022-10-22T06:36:55;9.50;1.00
22923;DHT22;11627;51.322;22.816;2022-10-22T06:39:21;9.50;1.00
22923;DHT22;11627;51.322;22.816;2022-10-22T06:41:47;9.60;1.00
22923;DHT22;11627;51.322;22.816;2022-10-22T06:44:14;9.60;1.00
22923;DHT22;11627;51.322;22.816;2022-10-22T06:46:40;9.70;1.00
22923;DHT22;11627;51.322;22.816;2022-10-22T06:49:11;9.70;1.00
22923;DHT22;11627;51.322;22.816;2022-10-22T06:51:37;9.70;1.00
22923;DHT22;11627;51.322;22.816;2022-10-22T06:54:02;9.70;1.00
22923;DHT22;11627;51.322;22.816;2022-10-22T06:56:28;9.70;1.00
22923;DHT22;11627;51.322;22.816;2022-10-22T06:58:55;9.70;1.00
22923;DHT22;11627;51.322;22.816;2022-10-22T07:01:27;9.70;1.00
22923;DHT22;11627;51.322;22.816;2022-10-22T07:03:53;9.80;1.00
22923;DHT22;11627;51.322;22.816;2022-10-22T07:06:20;9.70;1.00
22923;DHT22;11627;51.322;22.816;2022-10-22T07:08:46;9.80;1.00
22923;DHT22;11627;51.322;22.816;2022-10-22T07:11:17;9.80;1.00
22923;DHT22;11627;51.322;22.816;2022-10-22T07:13:43;9.90;1.00
22923;DHT22;11627;51.322;22.816;2022-10-22T07:16:10;9.90;1.00
22923;DHT22;11627;51.322;22.816;2022-10-22T07:18:36;10.00;1.00
22923;DHT22;11627;51.322;22.816;2022-10-22T07:21:03;9.90;1.00
22923;DHT22;11627;51.322;22.816;2022-10-22T07:23:29;10.10;1.00
22923;DHT22;11627;51.322;22.816;2022-10-22T07:25:55;10.10;1.00
22923;DHT22;11627;51.322;22.816;2022-10-22T07:28:22;10.20;1.00
22923;DHT22;11627;51.322;22.816;2022-10-22T07:30:47;10.30;1.00
22923;DHT22;11627;51.322;22.816;2022-10-22T07:33:13;10.40;1.00
22923;DHT22;11627;51.322;22.816;2022-10-22T07:35:39;10.40;1.00
22923;DHT22;11627;51.322;22.816;2022-10-22T07:38:06;10.40;1.00
22923;DHT22;11627;51.322;22.816;2022-10-22T07:40:32;10.50;1.00
22923;DHT22;11627;51.322;22.816;2022-10-22T07:42:58;10.50;1.00
22923;DHT22;11627;51.322;22.816;2022-10-22T07:45:23;10.50;1.00
22923;DHT22;11627;51.322;22.816;2022-10-22T07:47:49;10.40;1.00
22923;DHT22;11627;51.322;22.816;2022-10-22T07:50:15;10.60;1.00
22923;DHT22;11627;51.322;22.816;2022-10-22T07:52:41;10.70;1.00
22923;DHT22;11627;51.322;22.816;2022-10-22T07:55:07;10.90;1.00
22923;DHT22;11627;51.322;22.816;2022-10-22T07:57:33;11.10;1.00
22923;DHT22;11627;51.322;22.816;2022-10-22T07:59:59;11.10;1.00
22923;DHT22;11627;51.322;22.816;2022-10-22T08:02:25;11.00;1.00
22923;DHT22;11627;51.322;22.816;2022-10-22T08:04:50;11.10;1.00
22923;DHT22;11627;51.322;22.816;2022-10-22T08:07:17;11.00;1.00
22923;DHT22;11627;51.322;22.816;2022-10-22T08:09:43;11.10;1.00
22923;DHT22;11627;51.322;22.816;2022-10-22T08:12:08;11.20;1.00
22923;DHT22;11627;51.322;22.816;2022-10-22T08:14:34;11.30;1.00
22923;DHT22;11627;51.322;22.816;2022-10-22T08:17:00;11.40;1.00
22923;DHT22;11627;51.322;22.816;2022-10-22T08:19:25;11.60;1.00
22923;DHT22;11627;51.322;22.816;2022-10-22T08:21:54;11.50;1.00
22923;DHT22;11627;51.322;22.816;2022-10-22T08:24:19;11.50;1.00
22923;DHT22;11627;51.322;22.816;2022-10-22T08:26:45;11.50;1.00
22923;DHT22;11627;51.322;22.816;2022-10-22T08:29:10;11.50;1.00
22923;DHT22;11627;51.322;22.816;2022-10-22T08:31:36;11.40;1.00
22923;DHT22;11627;51.322;22.816;2022-10-22T08:34:01;11.60;1.00
22923;DHT22;11627;51.322;22.816;2022-10-22T08:36:27;11.70;1.00
22923;DHT22;11627;51.322;22.816;2022-10-22T08:38:52;11.70;1.00
22923;DHT22;11627;51.322;22.816;2022-10-22T08:41:20;11.70;1.00
22923;DHT22;11627;51.322;22.816;2022-10-22T08:46:56;11.70;1.00
22923;DHT22;11627;51.322;22.816;2022-10-22T08:49:31;11.80;1.00
22923;DHT22;11627;51.322;22.816;2022-10-22T08:51:58;12.20;1.00
22923;DHT22;11627;51.322;22.816;2022-10-22T08:54:38;12.20;1.00
22923;DHT22;11627;51.322;22.816;2022-10-22T08:59:44;12.40;1.00
22923;DHT22;11627;51.322;22.816;2022-10-22T09:02:36;12.80;1.00
22923;DHT22;11627;51.322;22.816;2022-10-22T09:07:51;12.40;1.00
22923;DHT22;11627;51.322;22.816;2022-10-22T09:10:18;12.40;1.00
22923;DHT22;11627;51.322;22.816;2022-10-22T09:12:47;12.40;1.00
22923;DHT22;11627;51.322;22.816;2022-10-22T09:15:14;12.40;1.00
22923;DHT22;11627;51.322;22.816;2022-10-22T09:25:50;12.40;1.00
22923;DHT22;11627;51.322;22.816;2022-10-22T09:28:17;12.50;1.00
22923;DHT22;11627;51.322;22.816;2022-10-22T09:30:43;12.40;1.00
22923;DHT22;11627;51.322;22.816;2022-10-22T09:38:08;12.50;1.00
22923;DHT22;11627;51.322;22.816;2022-10-22T09:40:49;12.50;1.00
22923;DHT22;11627;51.322;22.816;2022-10-22T09:43:15;12.50;1.00
22923;DHT22;11627;51.322;22.816;2022-10-22T09:45:42;12.50;1.00
22923;DHT22;11627;51.322;22.816;2022-10-22T09:48:15;12.60;1.00
22923;DHT22;11627;51.322;22.816;2022-10-22T09:50:48;12.60;1.00
22923;DHT22;11627;51.322;22.816;2022-10-22T09:55:50;12.60;1.00
22923;DHT22;11627;51.322;22.816;2022-10-22T09:58:17;12.90;1.00
22923;DHT22;11627;51.322;22.816;2022-10-22T10:00:46;12.70;1.00
22923;DHT22;11627;51.322;22.816;2022-10-22T10:03:21;12.60;1.00
22923;DHT22;11627;51.322;22.816;2022-10-22T10:05:49;12.60;1.00
22923;DHT22;11627;51.322;22.816;2022-10-22T10:08:16;12.70;1.00
22923;DHT22;11627;51.322;22.816;2022-10-22T10:24:42;12.50;1.00
22923;DHT22;11627;51.322;22.816;2022-10-22T10:27:04;12.50;1.00
22923;DHT22;11627;51.322;22.816;2022-10-22T10:29:49;12.40;1.00
22923;DHT22;11627;51.322;22.816;2022-10-22T10:35:24;12.40;1.00
22923;DHT22;11627;51.322;22.816;2022-10-22T10:43:15;12.40;1.00
22923;DHT22;11627;51.322;22.816;2022-10-22T10:48:35;12.50;1.00
22923;DHT22;11627;51.322;22.816;2022-10-22T11:02:01;13.10;1.00
22923;DHT22;11627;51.322;22.816;2022-10-22T11:07:23;13.00;1.00
22923;DHT22;11627;51.322;22.816;2022-10-22T11:09:55;12.90;1.00
22923;DHT22;11627;51.322;22.816;2022-10-22T11:12:32;12.90;1.00
22923;DHT22;11627;51.322;22.816;2022-10-22T11:15:00;12.90;1.00
22923;DHT22;11627;51.322;22.816;2022-10-22T11:17:47;12.90;1.00
22923;DHT22;11627;51.322;22.816;2022-10-22T11:23:31;12.80;1.00
22923;DHT22;11627;51.322;22.816;2022-10-22T11:25:59;12.80;1.00
22923;DHT22;11627;51.322;22.816;2022-10-22T11:28:32;12.80;1.00
22923;DHT22;11627;51.322;22.816;2022-10-22T11:31:03;12.80;1.00
22923;DHT22;11627;51.322;22.816;2022-10-22T11:33:50;12.80;1.00
22923;DHT22;11627;51.322;22.816;2022-10-22T11:36:20;12.80;1.00
22923;DHT22;11627;51.322;22.816;2022-10-22T11:38:47;12.80;1.00
22923;DHT22;11627;51.322;22.816;2022-10-22T11:41:16;12.80;1.00
22923;DHT22;11627;51.322;22.816;2022-10-22T11:43:52;12.80;1.00
22923;DHT22;11627;51.322;22.816;2022-10-22T11:49:04;12.80;1.00
22923;DHT22;11627;51.322;22.816;2022-10-22T11:51:41;12.80;1.00
22923;DHT22;11627;51.322;22.816;2022-10-22T11:54:38;12.80;1.00
22923;DHT22;11627;51.322;22.816;2022-10-22T11:59:51;12.80;1.00
22923;DHT22;11627;51.322;22.816;2022-10-22T12:02:38;12.80;1.00
22923;DHT22;11627;51.322;22.816;2022-10-22T12:07:56;12.90;1.00
22923;DHT22;11627;51.322;22.816;2022-10-22T12:10:34;12.90;1.00
22923;DHT22;11627;51.322;22.816;2022-10-22T12:13:21;12.90;1.00
22923;DHT22;11627;51.322;22.816;2022-10-22T12:15:48;12.90;1.00
22923;DHT22;11627;51.322;22.816;2022-10-22T12:18:16;12.90;1.00
22923;DHT22;11627;51.322;22.816;2022-10-22T12:20:42;12.90;1.00
22923;DHT22;11627;51.322;22.816;2022-10-22T12:23:11;13.00;1.00
22923;DHT22;11627;51.322;22.816;2022-10-22T12:25:38;13.20;1.00
22923;DHT22;11627;51.322;22.816;2022-10-22T12:28:04;13.40;1.00
22923;DHT22;11627;51.322;22.816;2022-10-22T12:30:32;13.00;1.00
22923;DHT22;11627;51.322;22.816;2022-10-22T12:33:04;12.90;1.00
22923;DHT22;11627;51.322;22.816;2022-10-22T12:35:40;12.90;1.00
22923;DHT22;11627;51.322;22.816;2022-10-22T12:38:16;13.00;1.00
22923;DHT22;11627;51.322;22.816;2022-10-22T12:40:45;13.10;1.00
22923;DHT22;11627;51.322;22.816;2022-10-22T12:43:16;13.20;1.00
22923;DHT22;11627;51.322;22.816;2022-10-22T12:45:44;13.30;1.00
22923;DHT22;11627;51.322;22.816;2022-10-22T12:48:23;13.40;1.00
22923;DHT22;11627;51.322;22.816;2022-10-22T12:50:55;13.40;1.00
22923;DHT22;11627;51.322;22.816;2022-10-22T12:53:42;13.40;1.00
22923;DHT22;11627;51.322;22.816;2022-10-22T12:56:12;13.30;1.00
22923;DHT22;11627;51.322;22.816;2022-10-22T12:58:45;13.20;1.00
22923;DHT22;11627;51.322;22.816;2022-10-22T13:01:13;13.10;1.00
22923;DHT22;11627;51.322;22.816;2022-10-22T13:03:43;13.10;1.00
22923;DHT22;11627;51.322;22.816;2022-10-22T13:09:11;12.90;1.00
22923;DHT22;11627;51.322;22.816;2022-10-22T13:11:41;13.10;1.00
22923;DHT22;11627;51.322;22.816;2022-10-22T13:14:28;13.10;1.00
22923;DHT22;11627;51.322;22.816;2022-10-22T13:17:10;13.10;1.00
22923;DHT22;11627;51.322;22.816;2022-10-22T13:19:37;13.30;1.00
22923;DHT22;11627;51.322;22.816;2022-10-22T13:22:03;13.20;1.00
22923;DHT22;11627;51.322;22.816;2022-10-22T13:24:29;13.30;1.00
22923;DHT22;11627;51.322;22.816;2022-10-22T13:26:55;13.10;1.00
22923;DHT22;11627;51.322;22.816;2022-10-22T13:29:22;13.10;1.00
22923;DHT22;11627;51.322;22.816;2022-10-22T13:31:52;13.10;1.00
22923;DHT22;11627;51.322;22.816;2022-10-22T13:34:19;13.10;1.00
22923;DHT22;11627;51.322;22.816;2022-10-22T13:36:46;13.10;1.00
22923;DHT22;11627;51.322;22.816;2022-10-22T13:39:21;13.10;1.00
22923;DHT22;11627;51.322;22.816;2022-10-22T13:41:46;13.20;1.00
22923;DHT22;11627;51.322;22.816;2022-10-22T13:44:15;13.20;1.00
22923;DHT22;11627;51.322;22.816;2022-10-22T13:46:41;13.30;1.00
22923;DHT22;11627;51.322;22.816;2022-10-22T13:49:15;13.30;1.00
22923;DHT22;11627;51.322;22.816;2022-10-22T13:51:42;13.20;1.00
22923;DHT22;11627;51.322;22.816;2022-10-22T13:54:13;13.10;1.00
22923;DHT22;11627;51.322;22.816;2022-10-22T13:56:40;13.00;1.00
22923;DHT22;11627;51.322;22.816;2022-10-22T13:59:05;13.00;1.00
22923;DHT22;11627;51.322;22.816;2022-10-22T14:01:31;13.00;1.00
22923;DHT22;11627;51.322;22.816;2022-10-22T14:03:58;13.00;3.20
22923;DHT22;11627;51.322;22.816;2022-10-22T14:06:28;13.20;1.00
22923;DHT22;11627;51.322;22.816;2022-10-22T14:09:01;13.30;1.00
22923;DHT22;11627;51.322;22.816;2022-10-22T14:11:27;13.10;1.00
22923;DHT22;11627;51.322;22.816;2022-10-22T14:13:55;13.00;1.00
22923;DHT22;11627;51.322;22.816;2022-10-22T14:16:23;13.10;1.50
22923;DHT22;11627;51.322;22.816;2022-10-22T14:18:50;12.90;2.60
22923;DHT22;11627;51.322;22.816;2022-10-22T14:21:16;12.80;5.20
22923;DHT22;11627;51.322;22.816;2022-10-22T14:23:44;12.80;4.30
22923;DHT22;11627;51.322;22.816;2022-10-22T14:26:36;12.80;4.30
22923;DHT22;11627;51.322;22.816;2022-10-22T14:29:02;12.80;6.30
22923;DHT22;11627;51.322;22.816;2022-10-22T14:31:27;12.80;3.30
22923;DHT22;11627;51.322;22.816;2022-10-22T14:33:53;12.80;4.00
22923;DHT22;11627;51.322;22.816;2022-10-22T14:36:19;12.70;5.10
22923;DHT22;11627;51.322;22.816;2022-10-22T14:38:46;12.90;1.00
22923;DHT22;11627;51.322;22.816;2022-10-22T14:41:22;12.80;1.00
22923;DHT22;11627;51.322;22.816;2022-10-22T14:43:49;12.80;1.00
22923;DHT22;11627;51.322;22.816;2022-10-22T14:46:16;12.80;1.00
22923;DHT22;11627;51.322;22.816;2022-10-22T14:48:42;12.80;1.00
22923;DHT22;11627;51.322;22.816;2022-10-22T14:51:16;12.80;1.00
22923;DHT22;11627;51.322;22.816;2022-10-22T14:53:44;12.80;1.00
22923;DHT22;11627;51.322;22.816;2022-10-22T14:56:11;12.70;1.00
22923;DHT22;11627;51.322;22.816;2022-10-22T14:58:38;12.60;1.00
22923;DHT22;11627;51.322;22.816;2022-10-22T15:01:04;12.60;1.00
22923;DHT22;11627;51.322;22.816;2022-10-22T15:03:29;12.50;1.00
22923;DHT22;11627;51.322;22.816;2022-10-22T15:05:55;12.40;1.00
22923;DHT22;11627;51.322;22.816;2022-10-22T15:08:21;13.50;1.00
22923;DHT22;11627;51.322;22.816;2022-10-22T15:10:59;12.30;1.00
22923;DHT22;11627;51.322;22.816;2022-10-22T15:13:26;12.20;5.70
22923;DHT22;11627;51.322;22.816;2022-10-22T15:15:53;12.30;5.70
22923;DHT22;11627;51.322;22.816;2022-10-22T15:18:18;12.20;7.70
22923;DHT22;11627;51.322;22.816;2022-10-22T15:20:44;11.00;8.80
22923;DHT22;11627;51.322;22.816;2022-10-22T15:23:09;12.20;9.00
22923;DHT22;11627;51.322;22.816;2022-10-22T15:25:35;12.10;10.70
22923;DHT22;11627;51.322;22.816;2022-10-22T15:28:00;12.10;14.00
22923;DHT22;11627;51.322;22.816;2022-10-22T15:30:26;12.00;15.50
22923;DHT22;11627;51.322;22.816;2022-10-22T15:32:51;12.00;17.50
22923;DHT22;11627;51.322;22.816;2022-10-22T15:35:17;11.90;21.80
22923;DHT22;11627;51.322;22.816;2022-10-22T15:37:43;11.80;24.00
22923;DHT22;11627;51.322;22.816;2022-10-22T15:40:08;11.80;26.60
22923;DHT22;11627;51.322;22.816;2022-10-22T15:42:34;11.90;24.80
22923;DHT22;11627;51.322;22.816;2022-10-22T15:45:00;11.80;27.20
22923;DHT22;11627;51.322;22.816;2022-10-22T15:47:26;11.70;28.20
22923;DHT22;11627;51.322;22.816;2022-10-22T15:49:53;11.80;30.50
22923;DHT22;11627;51.322;22.816;2022-10-22T15:52:20;11.70;32.00
22923;DHT22;11627;51.322;22.816;2022-10-22T15:54:46;11.70;31.50
22923;DHT22;11627;51.322;22.816;2022-10-22T15:57:12;11.80;31.20
22923;DHT22;11627;51.322;22.816;2022-10-22T15:59:37;11.70;32.90
22923;DHT22;11627;51.322;22.816;2022-10-22T16:02:03;11.60;35.60
22923;DHT22;11627;51.322;22.816;2022-10-22T16:04:29;11.50;37.30
22923;DHT22;11627;51.322;22.816;2022-10-22T16:06:54;11.70;36.90
22923;DHT22;11627;51.322;22.816;2022-10-22T16:09:23;11.60;38.30
22923;DHT22;11627;51.322;22.816;2022-10-22T16:11:50;11.60;40.60
22923;DHT22;11627;51.322;22.816;2022-10-22T16:14:18;11.60;40.30
22923;DHT22;11627;51.322;22.816;2022-10-22T16:16:47;11.90;43.30
22923;DHT22;11627;51.322;22.816;2022-10-22T16:19:14;11.60;43.70
22923;DHT22;11627;51.322;22.816;2022-10-22T16:21:40;11.50;46.20
22923;DHT22;11627;51.322;22.816;2022-10-22T16:24:07;11.60;45.30
22923;DHT22;11627;51.322;22.816;2022-10-22T16:26:33;11.50;47.20
22923;DHT22;11627;51.322;22.816;2022-10-22T16:28:59;11.80;49.50
22923;DHT22;11627;51.322;22.816;2022-10-22T16:31:24;11.50;49.10
22923;DHT22;11627;51.322;22.816;2022-10-22T16:33:50;11.50;49.50
22923;DHT22;11627;51.322;22.816;2022-10-22T16:36:19;11.50;51.70
22923;DHT22;11627;51.322;22.816;2022-10-22T16:38:46;11.50;52.20
22923;DHT22;11627;51.322;22.816;2022-10-22T16:41:14;11.50;52.70
22923;DHT22;11627;51.322;22.816;2022-10-22T16:43:41;11.50;52.90
22923;DHT22;11627;51.322;22.816;2022-10-22T16:46:07;11.50;54.80
22923;DHT22;11627;51.322;22.816;2022-10-22T16:48:33;11.50;53.90
22923;DHT22;11627;51.322;22.816;2022-10-22T16:51:05;11.50;55.50
22923;DHT22;11627;51.322;22.816;2022-10-22T16:53:30;11.40;57.50
22923;DHT22;11627;51.322;22.816;2022-10-22T16:55:56;11.40;59.50
22923;DHT22;11627;51.322;22.816;2022-10-22T16:58:21;11.30;60.60
22923;DHT22;11627;51.322;22.816;2022-10-22T17:00:47;11.30;62.40
22923;DHT22;11627;51.322;22.816;2022-10-22T17:03:13;11.40;62.00
22923;DHT22;11627;51.322;22.816;2022-10-22T17:05:38;11.40;61.70
22923;DHT22;11627;51.322;22.816;2022-10-22T17:08:04;11.60;61.90
22923;DHT22;11627;51.322;22.816;2022-10-22T17:10:29;11.30;62.90
22923;DHT22;11627;51.322;22.816;2022-10-22T17:12:55;11.30;63.40
22923;DHT22;11627;51.322;22.816;2022-10-22T17:15:20;11.80;64.70